sensor_id;sensor_type;location;lat;lon;timestamp;temperature;humidity
51811;DHT22;52468;40.116;18.296;2023-11-22T00:01:33;19.00;82.20
51811;DHT22;52468;40.116;18.296;2023-11-22T00:04:02;19.00;82.20
51811;DHT22;52468;40.116;18.296;2023-11-22T00:06:30;19.00;82.40
51811;DHT22;52468;40.116;18.296;2023-11-22T00:08:58;19.00;82.40
51811;DHT22;52468;40.116;18.296;2023-11-22T00:11:25;19.00;82.50
51811;DHT22;52468;40.116;18.296;2023-11-22T00:13:53;19.10;82.60
51811;DHT22;52468;40.116;18.296;2023-11-22T00:16:24;19.10;82.60
51811;DHT22;52468;40.116;18.296;2023-11-22T00:18:52;19.20;82.70
51811;DHT22;52468;40.116;18.296;2023-11-22T00:21:20;19.40;82.20
51811;DHT22;52468;40.116;18.296;2023-11-22T00:23:48;19.30;82.20
51811;DHT22;52468;40.116;18.296;2023-11-22T00:26:16;19.20;82.30
51811;DHT22;52468;40.116;18.296;2023-11-22T00:28:52;19.30;82.60
51811;DHT22;52468;40.116;18.296;2023-11-22T00:31:21;19.30;82.60
51811;DHT22;52468;40.116;18.296;2023-11-22T00:33:50;19.30;82.80
51811;DHT22;52468;40.116;18.296;2023-11-22T00:36:18;19.30;82.90
51811;DHT22;52468;40.116;18.296;2023-11-22T00:38:46;19.40;82.70
51811;DHT22;52468;40.116;18.296;2023-11-22T00:41:14;19.50;82.50
51811;DHT22;52468;40.116;18.296;2023-11-22T00:43:44;19.40;82.60
51811;DHT22;52468;40.116;18.296;2023-11-22T00:46:12;19.40;82.80
51811;DHT22;52468;40.116;18.296;2023-11-22T00:48:40;19.50;82.80
51811;DHT22;52468;40.116;18.296;2023-11-22T00:51:09;19.50;82.70
51811;DHT22;52468;40.116;18.296;2023-11-22T00:53:38;19.50;82.80
51811;DHT22;52468;40.116;18.296;2023-11-22T00:56:06;19.50;83.00
51811;DHT22;52468;40.116;18.296;2023-11-22T00:58:35;19.50;82.90
51811;DHT22;52468;40.116;18.296;2023-11-22T01:01:03;19.60;82.70
51811;DHT22;52468;40.116;18.296;2023-11-22T01:03:30;19.60;82.40
51811;DHT22;52468;40.116;18.296;2023-11-22T01:05:58;19.70;82.50
51811;DHT22;52468;40.116;18.296;2023-11-22T01:08:26;19.60;82.50
51811;DHT22;52468;40.116;18.296;2023-11-22T01:10:54;19.60;82.50
51811;DHT22;52468;40.116;18.296;2023-11-22T01:13:24;19.60;82.60
51811;DHT22;52468;40.116;18.296;2023-11-22T01:15:52;19.60;82.60
51811;DHT22;52468;40.116;18.296;2023-11-22T01:18:21;19.60;82.70
51811;DHT22;52468;40.116;18.296;2023-11-22T01:20:50;19.60;82.50
51811;DHT22;52468;40.116;18.296;2023-11-22T01:23:18;19.50;82.50
51811;DHT22;52468;40.116;18.296;2023-11-22T01:25:46;19.50;82.50
51811;DHT22;52468;40.116;18.296;2023-11-22T01:28:13;19.40;82.70
51811;DHT22;52468;40.116;18.296;2023-11-22T01:30:42;19.30;82.80
51811;DHT22;52468;40.116;18.296;2023-11-22T01:33:09;19.30;82.70
51811;DHT22;52468;40.116;18.296;2023-11-22T01:35:37;19.40;82.70
51811;DHT22;52468;40.116;18.296;2023-11-22T01:38:06;19.30;82.80
51811;DHT22;52468;40.116;18.296;2023-11-22T01:40:34;19.30;82.80
51811;DHT22;52468;40.116;18.296;2023-11-22T01:43:02;19.30;82.80
51811;DHT22;52468;40.116;18.296;2023-11-22T01:45:31;19.30;83.00
51811;DHT22;52468;40.116;18.296;2023-11-22T01:48:00;19.30;83.00
51811;DHT22;52468;40.116;18.296;2023-11-22T01:50:29;19.30;82.80
51811;DHT22;52468;40.116;18.296;2023-11-22T01:52:57;19.30;82.90
51811;DHT22;52468;40.116;18.296;2023-11-22T01:55:25;19.30;83.10
51811;DHT22;52468;40.116;18.296;2023-11-22T01:57:53;19.20;83.00
51811;DHT22;52468;40.116;18.296;2023-11-22T02:00:21;19.30;83.00
51811;DHT22;52468;40.116;18.296;2023-11-22T02:02:51;19.20;83.10
51811;DHT22;52468;40.116;18.296;2023-11-22T02:05:19;19.20;83.20
51811;DHT22;52468;40.116;18.296;2023-11-22T02:07:47;19.20;83.20
51811;DHT22;52468;40.116;18.296;2023-11-22T02:10:15;19.20;83.20
51811;DHT22;52468;40.116;18.296;2023-11-22T02:12:44;19.20;83.10
51811;DHT22;52468;40.116;18.296;2023-11-22T02:15:12;19.20;83.20
51811;DHT22;52468;40.116;18.296;2023-11-22T02:17:40;19.10;83.10
51811;DHT22;52468;40.116;18.296;2023-11-22T02:20:10;19.10;83.10
51811;DHT22;52468;40.116;18.296;2023-11-22T02:22:46;19.10;83.20
51811;DHT22;52468;40.116;18.296;2023-11-22T02:25:14;19.10;83.20
51811;DHT22;52468;40.116;18.296;2023-11-22T02:27:45;19.10;83.20
51811;DHT22;52468;40.116;18.296;2023-11-22T02:30:14;19.10;83.10
51811;DHT22;52468;40.116;18.296;2023-11-22T02:32:42;19.00;83.30
51811;DHT22;52468;40.116;18.296;2023-11-22T02:35:13;19.00;83.40
51811;DHT22;52468;40.116;18.296;2023-11-22T02:37:43;19.00;83.40
51811;DHT22;52468;40.116;18.296;2023-11-22T02:40:22;19.00;83.50
51811;DHT22;52468;40.116;18.296;2023-11-22T02:42:52;19.00;83.50
51811;DHT22;52468;40.116;18.296;2023-11-22T02:45:26;19.00;83.40
51811;DHT22;52468;40.116;18.296;2023-11-22T02:47:55;18.90;83.50
51811;DHT22;52468;40.116;18.296;2023-11-22T02:50:23;19.00;83.50
51811;DHT22;52468;40.116;18.296;2023-11-22T02:52:51;19.00;83.70
51811;DHT22;52468;40.116;18.296;2023-11-22T02:55:19;19.00;83.70
51811;DHT22;52468;40.116;18.296;2023-11-22T02:57:47;18.90;83.70
51811;DHT22;52468;40.116;18.296;2023-11-22T03:00:15;19.00;83.80
51811;DHT22;52468;40.116;18.296;2023-11-22T03:02:43;18.90;83.80
51811;DHT22;52468;40.116;18.296;2023-11-22T03:05:13;18.90;83.80
51811;DHT22;52468;40.116;18.296;2023-11-22T03:07:42;18.90;83.80
51811;DHT22;52468;40.116;18.296;2023-11-22T03:10:10;18.90;83.80
51811;DHT22;52468;40.116;18.296;2023-11-22T03:12:38;18.90;83.80
51811;DHT22;52468;40.116;18.296;2023-11-22T03:15:06;18.80;83.90
51811;DHT22;52468;40.116;18.296;2023-11-22T03:17:34;18.80;83.80
51811;DHT22;52468;40.116;18.296;2023-11-22T03:20:02;18.80;83.70
51811;DHT22;52468;40.116;18.296;2023-11-22T03:22:31;18.80;83.80
51811;DHT22;52468;40.116;18.296;2023-11-22T03:25:04;18.70;83.70
51811;DHT22;52468;40.116;18.296;2023-11-22T03:27:32;18.70;83.70
51811;DHT22;52468;40.116;18.296;2023-11-22T03:30:00;18.70;83.80
51811;DHT22;52468;40.116;18.296;2023-11-22T03:32:30;18.70;83.70
51811;DHT22;52468;40.116;18.296;2023-11-22T03:34:58;18.70;83.70
51811;DHT22;52468;40.116;18.296;2023-11-22T03:37:25;18.60;83.80
51811;DHT22;52468;40.116;18.296;2023-11-22T03:39:53;18.60;83.80
51811;DHT22;52468;40.116;18.296;2023-11-22T03:42:21;18.60;83.70
51811;DHT22;52468;40.116;18.296;2023-11-22T03:44:49;18.50;83.70
51811;DHT22;52468;40.116;18.296;2023-11-22T03:47:18;18.60;83.70
51811;DHT22;52468;40.116;18.296;2023-11-22T03:49:46;18.50;83.80
51811;DHT22;52468;40.116;18.296;2023-11-22T03:52:14;18.50;83.90
51811;DHT22;52468;40.116;18.296;2023-11-22T03:54:42;18.60;83.80
51811;DHT22;52468;40.116;18.296;2023-11-22T03:57:10;18.60;83.80
51811;DHT22;52468;40.116;18.296;2023-11-22T03:59:37;18.60;83.90
51811;DHT22;52468;40.116;18.296;2023-11-22T04:02:08;18.50;83.90
51811;DHT22;52468;40.116;18.296;2023-11-22T04:04:37;18.50;83.90
51811;DHT22;52468;40.116;18.296;2023-11-22T04:07:07;18.50;84.10
51811;DHT22;52468;40.116;18.296;2023-11-22T04:09:35;18.50;84.10
51811;DHT22;52468;40.116;18.296;2023-11-22T04:12:04;18.50;84.00
51811;DHT22;52468;40.116;18.296;2023-11-22T04:14:31;18.50;84.00
51811;DHT22;52468;40.116;18.296;2023-11-22T04:17:00;18.50;83.90
51811;DHT22;52468;40.116;18.296;2023-11-22T04:19:27;18.50;84.00
51811;DHT22;52468;40.116;18.296;2023-11-22T04:21:55;18.60;84.00
51811;DHT22;52468;40.116;18.296;2023-11-22T04:24:23;18.60;83.90
51811;DHT22;52468;40.116;18.296;2023-11-22T04:26:51;18.50;84.00
51811;DHT22;52468;40.116;18.296;2023-11-22T04:29:19;18.60;83.90
51811;DHT22;52468;40.116;18.296;2023-11-22T04:31:47;18.60;84.00
51811;DHT22;52468;40.116;18.296;2023-11-22T04:34:15;18.50;84.10
51811;DHT22;52468;40.116;18.296;2023-11-22T04:36:43;18.60;83.90
51811;DHT22;52468;40.116;18.296;2023-11-22T04:39:14;18.60;83.80
51811;DHT22;52468;40.116;18.296;2023-11-22T04:41:42;18.60;83.70
51811;DHT22;52468;40.116;18.296;2023-11-22T04:44:10;18.60;83.70
51811;DHT22;52468;40.116;18.296;2023-11-22T04:46:38;18.60;83.90
51811;DHT22;52468;40.116;18.296;2023-11-22T04:49:06;18.60;83.90
51811;DHT22;52468;40.116;18.296;2023-11-22T04:51:35;18.60;83.80
51811;DHT22;52468;40.116;18.296;2023-11-22T04:54:03;18.60;83.90
51811;DHT22;52468;40.116;18.296;2023-11-22T04:56:31;18.60;83.90
51811;DHT22;52468;40.116;18.296;2023-11-22T04:58:59;18.50;84.10
51811;DHT22;52468;40.116;18.296;2023-11-22T05:01:33;18.50;84.00
51811;DHT22;52468;40.116;18.296;2023-11-22T05:04:01;18.50;83.90
51811;DHT22;52468;40.116;18.296;2023-11-22T05:06:29;18.50;84.10
51811;DHT22;52468;40.116;18.296;2023-11-22T05:08:57;18.50;84.10
51811;DHT22;52468;40.116;18.296;2023-11-22T05:11:25;18.40;84.20
51811;DHT22;52468;40.116;18.296;2023-11-22T05:13:53;18.50;84.10
51811;DHT22;52468;40.116;18.296;2023-11-22T05:16:21;18.50;84.10
51811;DHT22;52468;40.116;18.296;2023-11-22T05:18:49;18.40;84.00
51811;DHT22;52468;40.116;18.296;2023-11-22T05:21:17;18.50;84.20
51811;DHT22;52468;40.116;18.296;2023-11-22T05:23:45;18.50;83.90
51811;DHT22;52468;40.116;18.296;2023-11-22T05:26:13;18.50;84.00
51811;DHT22;52468;40.116;18.296;2023-11-22T05:28:41;18.50;83.90
51811;DHT22;52468;40.116;18.296;2023-11-22T05:31:09;18.50;84.00
51811;DHT22;52468;40.116;18.296;2023-11-22T05:33:37;18.50;83.90
51811;DHT22;52468;40.116;18.296;2023-11-22T05:36:05;18.50;83.90
51811;DHT22;52468;40.116;18.296;2023-11-22T05:38:33;18.40;83.90
51811;DHT22;52468;40.116;18.296;2023-11-22T05:41:01;18.40;83.90
51811;DHT22;52468;40.116;18.296;2023-11-22T05:43:29;18.50;83.90
51811;DHT22;52468;40.116;18.296;2023-11-22T05:45:57;18.40;83.90
51811;DHT22;52468;40.116;18.296;2023-11-22T05:48:25;18.40;83.90
51811;DHT22;52468;40.116;18.296;2023-11-22T05:50:53;18.50;84.00
51811;DHT22;52468;40.116;18.296;2023-11-22T05:53:20;18.50;84.20
51811;DHT22;52468;40.116;18.296;2023-11-22T05:55:49;18.50;84.30
51811;DHT22;52468;40.116;18.296;2023-11-22T05:58:17;18.50;84.10
51811;DHT22;52468;40.116;18.296;2023-11-22T06:00:46;18.50;84.10
51811;DHT22;52468;40.116;18.296;2023-11-22T06:03:14;18.50;84.10
51811;DHT22;52468;40.116;18.296;2023-11-22T06:05:42;18.50;84.10
51811;DHT22;52468;40.116;18.296;2023-11-22T06:08:10;18.50;84.10
51811;DHT22;52468;40.116;18.296;2023-11-22T06:10:38;18.60;83.80
51811;DHT22;52468;40.116;18.296;2023-11-22T06:13:09;18.60;84.00
51811;DHT22;52468;40.116;18.296;2023-11-22T06:15:38;18.70;84.00
51811;DHT22;52468;40.116;18.296;2023-11-22T06:18:06;18.80;83.90
51811;DHT22;52468;40.116;18.296;2023-11-22T06:20:34;18.80;83.90
51811;DHT22;52468;40.116;18.296;2023-11-22T06:23:02;18.90;83.80
51811;DHT22;52468;40.116;18.296;2023-11-22T06:25:29;18.90;83.80
51811;DHT22;52468;40.116;18.296;2023-11-22T06:27:58;19.00;83.70
51811;DHT22;52468;40.116;18.296;2023-11-22T06:30:26;19.10;83.60
51811;DHT22;52468;40.116;18.296;2023-11-22T06:32:54;19.20;83.40
51811;DHT22;52468;40.116;18.296;2023-11-22T06:35:23;19.30;83.30
51811;DHT22;52468;40.116;18.296;2023-11-22T06:37:51;19.40;83.30
51811;DHT22;52468;40.116;18.296;2023-11-22T06:40:19;19.50;83.30
51811;DHT22;52468;40.116;18.296;2023-11-22T06:42:48;19.50;83.40
51811;DHT22;52468;40.116;18.296;2023-11-22T06:45:16;19.60;83.40
51811;DHT22;52468;40.116;18.296;2023-11-22T06:47:44;19.70;83.30
51811;DHT22;52468;40.116;18.296;2023-11-22T06:50:12;19.70;83.20
51811;DHT22;52468;40.116;18.296;2023-11-22T06:52:41;19.80;83.10
51811;DHT22;52468;40.116;18.296;2023-11-22T06:55:10;19.90;83.20
51811;DHT22;52468;40.116;18.296;2023-11-22T06:57:38;20.00;83.10
51811;DHT22;52468;40.116;18.296;2023-11-22T07:00:07;20.10;82.90
51811;DHT22;52468;40.116;18.296;2023-11-22T07:02:37;20.20;82.80
51811;DHT22;52468;40.116;18.296;2023-11-22T07:05:05;20.30;82.60
51811;DHT22;52468;40.116;18.296;2023-11-22T07:07:37;20.50;82.70
51811;DHT22;52468;40.116;18.296;2023-11-22T07:10:06;20.50;82.50
51811;DHT22;52468;40.116;18.296;2023-11-22T07:12:34;20.70;82.40
51811;DHT22;52468;40.116;18.296;2023-11-22T07:15:03;20.80;82.20
51811;DHT22;52468;40.116;18.296;2023-11-22T07:17:34;20.90;82.00
51811;DHT22;52468;40.116;18.296;2023-11-22T07:20:02;21.00;81.90
51811;DHT22;52468;40.116;18.296;2023-11-22T07:22:31;21.20;81.30
51811;DHT22;52468;40.116;18.296;2023-11-22T07:24:59;21.20;80.40
51811;DHT22;52468;40.116;18.296;2023-11-22T07:27:32;21.20;81.10
51811;DHT22;52468;40.116;18.296;2023-11-22T07:30:00;21.40;80.70
51811;DHT22;52468;40.116;18.296;2023-11-22T07:32:31;21.50;80.20
51811;DHT22;52468;40.116;18.296;2023-11-22T07:34:59;21.50;79.90
51811;DHT22;52468;40.116;18.296;2023-11-22T07:37:31;21.60;79.70
51811;DHT22;52468;40.116;18.296;2023-11-22T07:39:59;21.70;79.20
51811;DHT22;52468;40.116;18.296;2023-11-22T07:42:27;21.70;78.60
51811;DHT22;52468;40.116;18.296;2023-11-22T07:44:55;21.90;78.00
51811;DHT22;52468;40.116;18.296;2023-11-22T07:47:23;21.90;77.30
51811;DHT22;52468;40.116;18.296;2023-11-22T07:49:52;22.00;77.20
51811;DHT22;52468;40.116;18.296;2023-11-22T07:52:20;22.00;76.60
51811;DHT22;52468;40.116;18.296;2023-11-22T07:54:48;22.10;75.90
51811;DHT22;52468;40.116;18.296;2023-11-22T07:57:16;22.20;74.60
51811;DHT22;52468;40.116;18.296;2023-11-22T07:59:43;22.30;74.40
51811;DHT22;52468;40.116;18.296;2023-11-22T08:02:11;22.50;73.90
51811;DHT22;52468;40.116;18.296;2023-11-22T08:04:40;22.50;72.90
51811;DHT22;52468;40.116;18.296;2023-11-22T08:07:08;22.50;73.00
51811;DHT22;52468;40.116;18.296;2023-11-22T08:09:35;22.50;72.50
51811;DHT22;52468;40.116;18.296;2023-11-22T08:12:04;22.50;71.90
51811;DHT22;52468;40.116;18.296;2023-11-22T08:14:32;22.50;72.20
51811;DHT22;52468;40.116;18.296;2023-11-22T08:17:00;22.40;72.10
51811;DHT22;52468;40.116;18.296;2023-11-22T08:19:29;22.40;72.10
51811;DHT22;52468;40.116;18.296;2023-11-22T08:21:57;22.40;72.30
51811;DHT22;52468;40.116;18.296;2023-11-22T08:24:25;22.30;71.80
51811;DHT22;52468;40.116;18.296;2023-11-22T08:26:53;22.20;71.60
51811;DHT22;52468;40.116;18.296;2023-11-22T08:29:21;22.20;71.20
51811;DHT22;52468;40.116;18.296;2023-11-22T08:31:49;22.30;70.60
51811;DHT22;52468;40.116;18.296;2023-11-22T08:34:18;22.10;70.80
51811;DHT22;52468;40.116;18.296;2023-11-22T08:36:46;22.20;70.20
51811;DHT22;52468;40.116;18.296;2023-11-22T08:39:14;22.10;69.90
51811;DHT22;52468;40.116;18.296;2023-11-22T08:41:42;22.20;70.00
51811;DHT22;52468;40.116;18.296;2023-11-22T08:44:10;22.30;70.00
51811;DHT22;52468;40.116;18.296;2023-11-22T08:46:38;22.50;69.80
51811;DHT22;52468;40.116;18.296;2023-11-22T08:49:05;22.60;69.40
51811;DHT22;52468;40.116;18.296;2023-11-22T08:51:34;22.70;68.90
51811;DHT22;52468;40.116;18.296;2023-11-22T08:54:02;22.70;68.90
51811;DHT22;52468;40.116;18.296;2023-11-22T08:56:30;22.80;69.00
51811;DHT22;52468;40.116;18.296;2023-11-22T08:58:58;22.80;68.80
51811;DHT22;52468;40.116;18.296;2023-11-22T09:01:26;22.80;68.90
51811;DHT22;52468;40.116;18.296;2023-11-22T09:03:54;23.00;69.00
51811;DHT22;52468;40.116;18.296;2023-11-22T09:06:22;23.20;68.80
51811;DHT22;52468;40.116;18.296;2023-11-22T09:08:50;23.50;68.00
51811;DHT22;52468;40.116;18.296;2023-11-22T09:11:18;23.70;66.90
51811;DHT22;52468;40.116;18.296;2023-11-22T09:13:49;24.00;66.20
51811;DHT22;52468;40.116;18.296;2023-11-22T09:16:18;24.10;65.50
51811;DHT22;52468;40.116;18.296;2023-11-22T09:18:47;24.20;65.20
51811;DHT22;52468;40.116;18.296;2023-11-22T09:21:16;24.30;64.20
51811;DHT22;52468;40.116;18.296;2023-11-22T09:23:44;24.30;63.40
51811;DHT22;52468;40.116;18.296;2023-11-22T09:26:12;24.30;63.20
51811;DHT22;52468;40.116;18.296;2023-11-22T09:28:40;24.40;62.60
51811;DHT22;52468;40.116;18.296;2023-11-22T09:31:08;24.50;62.50
51811;DHT22;52468;40.116;18.296;2023-11-22T09:33:39;24.60;62.20
51811;DHT22;52468;40.116;18.296;2023-11-22T09:36:07;24.70;60.80
51811;DHT22;52468;40.116;18.296;2023-11-22T09:38:35;24.80;60.50
51811;DHT22;52468;40.116;18.296;2023-11-22T09:41:05;24.90;60.60
51811;DHT22;52468;40.116;18.296;2023-11-22T09:43:35;25.00;60.00
51811;DHT22;52468;40.116;18.296;2023-11-22T09:46:03;25.10;59.30
51811;DHT22;52468;40.116;18.296;2023-11-22T09:48:32;25.20;58.60
51811;DHT22;52468;40.116;18.296;2023-11-22T09:51:21;25.30;58.20
51811;DHT22;52468;40.116;18.296;2023-11-22T09:53:59;25.40;58.10
51811;DHT22;52468;40.116;18.296;2023-11-22T09:56:28;25.50;57.80
51811;DHT22;52468;40.116;18.296;2023-11-22T09:58:59;25.60;57.50
51811;DHT22;52468;40.116;18.296;2023-11-22T10:01:28;25.70;56.60
51811;DHT22;52468;40.116;18.296;2023-11-22T10:03:59;25.80;56.80
51811;DHT22;52468;40.116;18.296;2023-11-22T10:06:27;25.90;56.40
51811;DHT22;52468;40.116;18.296;2023-11-22T10:09:02;26.00;55.50
51811;DHT22;52468;40.116;18.296;2023-11-22T10:11:36;26.10;54.40
51811;DHT22;52468;40.116;18.296;2023-11-22T10:14:06;26.20;54.70
51811;DHT22;52468;40.116;18.296;2023-11-22T10:16:34;26.40;53.70
51811;DHT22;52468;40.116;18.296;2023-11-22T10:19:04;26.40;52.10
51811;DHT22;52468;40.116;18.296;2023-11-22T10:21:34;26.40;52.30
51811;DHT22;52468;40.116;18.296;2023-11-22T10:24:03;26.50;52.20
51811;DHT22;52468;40.116;18.296;2023-11-22T10:26:31;26.50;52.50
51811;DHT22;52468;40.116;18.296;2023-11-22T10:29:01;26.40;52.70
51811;DHT22;52468;40.116;18.296;2023-11-22T10:31:29;26.30;53.30
51811;DHT22;52468;40.116;18.296;2023-11-22T10:33:57;26.00;52.80
51811;DHT22;52468;40.116;18.296;2023-11-22T10:36:26;25.80;53.10
51811;DHT22;52468;40.116;18.296;2023-11-22T10:38:54;25.50;53.70
51811;DHT22;52468;40.116;18.296;2023-11-22T10:41:22;25.30;53.80
51811;DHT22;52468;40.116;18.296;2023-11-22T10:43:52;25.10;54.70
51811;DHT22;52468;40.116;18.296;2023-11-22T10:46:30;25.30;55.00
51811;DHT22;52468;40.116;18.296;2023-11-22T10:48:58;25.50;54.30
51811;DHT22;52468;40.116;18.296;2023-11-22T10:51:35;25.70;54.00
51811;DHT22;52468;40.116;18.296;2023-11-22T10:54:07;25.60;54.20
51811;DHT22;52468;40.116;18.296;2023-11-22T10:56:39;25.40;54.80
51811;DHT22;52468;40.116;18.296;2023-11-22T10:59:13;25.30;55.10
51811;DHT22;52468;40.116;18.296;2023-11-22T11:01:47;25.20;55.40
51811;DHT22;52468;40.116;18.296;2023-11-22T11:06:53;25.30;55.10
51811;DHT22;52468;40.116;18.296;2023-11-22T11:09:24;25.50;54.90
51811;DHT22;52468;40.116;18.296;2023-11-22T11:11:58;25.50;55.50
51811;DHT22;52468;40.116;18.296;2023-11-22T11:14:27;25.60;55.30
51811;DHT22;52468;40.116;18.296;2023-11-22T11:16:55;25.60;55.10
51811;DHT22;52468;40.116;18.296;2023-11-22T11:19:26;25.80;55.00
51811;DHT22;52468;40.116;18.296;2023-11-22T11:21:55;25.80;55.10
51811;DHT22;52468;40.116;18.296;2023-11-22T11:24:26;25.90;54.00
51811;DHT22;52468;40.116;18.296;2023-11-22T11:26:54;25.70;53.50
51811;DHT22;52468;40.116;18.296;2023-11-22T11:29:32;25.60;53.90
51811;DHT22;52468;40.116;18.296;2023-11-22T11:32:03;25.60;54.10
51811;DHT22;52468;40.116;18.296;2023-11-22T11:34:31;25.50;54.50
51811;DHT22;52468;40.116;18.296;2023-11-22T11:36:59;25.50;54.60
51811;DHT22;52468;40.116;18.296;2023-11-22T11:39:28;25.40;55.20
51811;DHT22;52468;40.116;18.296;2023-11-22T11:42:11;25.50;55.70
51811;DHT22;52468;40.116;18.296;2023-11-22T11:47:28;25.70;54.60
51811;DHT22;52468;40.116;18.296;2023-11-22T11:49:56;25.70;54.30
51811;DHT22;52468;40.116;18.296;2023-11-22T11:52:27;25.60;53.90
51811;DHT22;52468;40.116;18.296;2023-11-22T11:54:55;25.50;54.40
51811;DHT22;52468;40.116;18.296;2023-11-22T11:57:23;25.40;54.80
51811;DHT22;52468;40.116;18.296;2023-11-22T11:59:52;25.40;54.70
51811;DHT22;52468;40.116;18.296;2023-11-22T12:02:21;25.30;54.90
51811;DHT22;52468;40.116;18.296;2023-11-22T12:04:49;25.20;55.30
51811;DHT22;52468;40.116;18.296;2023-11-22T12:07:17;25.10;55.90
51811;DHT22;52468;40.116;18.296;2023-11-22T12:09:45;25.00;56.40
51811;DHT22;52468;40.116;18.296;2023-11-22T12:12:15;24.80;56.80
51811;DHT22;52468;40.116;18.296;2023-11-22T12:14:44;24.50;55.70
51811;DHT22;52468;40.116;18.296;2023-11-22T12:17:13;24.30;56.00
51811;DHT22;52468;40.116;18.296;2023-11-22T12:19:41;24.30;56.50
51811;DHT22;52468;40.116;18.296;2023-11-22T12:22:09;24.20;56.80
51811;DHT22;52468;40.116;18.296;2023-11-22T12:24:39;24.10;56.80
51811;DHT22;52468;40.116;18.296;2023-11-22T12:27:09;24.10;56.60
51811;DHT22;52468;40.116;18.296;2023-11-22T12:29:38;23.90;56.70
51811;DHT22;52468;40.116;18.296;2023-11-22T12:32:07;24.00;55.60
51811;DHT22;52468;40.116;18.296;2023-11-22T12:34:35;23.90;54.40
51811;DHT22;52468;40.116;18.296;2023-11-22T12:37:03;23.90;53.10
51811;DHT22;52468;40.116;18.296;2023-11-22T12:39:31;23.80;52.40
51811;DHT22;52468;40.116;18.296;2023-11-22T12:42:00;23.80;52.10
51811;DHT22;52468;40.116;18.296;2023-11-22T12:44:28;23.70;52.20
51811;DHT22;52468;40.116;18.296;2023-11-22T12:46:57;23.80;51.80
51811;DHT22;52468;40.116;18.296;2023-11-22T12:49:26;23.80;52.00
51811;DHT22;52468;40.116;18.296;2023-11-22T12:51:56;23.90;52.20
51811;DHT22;52468;40.116;18.296;2023-11-22T12:54:27;24.10;52.50
51811;DHT22;52468;40.116;18.296;2023-11-22T12:56:56;24.30;52.50
51811;DHT22;52468;40.116;18.296;2023-11-22T12:59:27;24.50;52.60
51811;DHT22;52468;40.116;18.296;2023-11-22T13:01:55;24.70;52.60
51811;DHT22;52468;40.116;18.296;2023-11-22T13:04:25;24.80;53.00
51811;DHT22;52468;40.116;18.296;2023-11-22T13:06:53;24.90;53.40
51811;DHT22;52468;40.116;18.296;2023-11-22T13:09:21;25.00;53.60
51811;DHT22;52468;40.116;18.296;2023-11-22T13:11:49;25.00;53.90
51811;DHT22;52468;40.116;18.296;2023-11-22T13:14:19;25.00;54.00
51811;DHT22;52468;40.116;18.296;2023-11-22T13:16:47;24.90;54.80
51811;DHT22;52468;40.116;18.296;2023-11-22T13:19:15;24.80;55.90
51811;DHT22;52468;40.116;18.296;2023-11-22T13:21:43;24.60;57.80
51811;DHT22;52468;40.116;18.296;2023-11-22T13:24:12;24.40;58.80
51811;DHT22;52468;40.116;18.296;2023-11-22T13:26:43;24.10;59.90
51811;DHT22;52468;40.116;18.296;2023-11-22T13:29:11;23.90;60.90
51811;DHT22;52468;40.116;18.296;2023-11-22T13:31:39;23.80;61.60
51811;DHT22;52468;40.116;18.296;2023-11-22T13:34:07;23.70;61.70
51811;DHT22;52468;40.116;18.296;2023-11-22T13:36:35;23.50;62.10
51811;DHT22;52468;40.116;18.296;2023-11-22T13:39:03;23.30;62.70
51811;DHT22;52468;40.116;18.296;2023-11-22T13:41:32;23.10;63.30
51811;DHT22;52468;40.116;18.296;2023-11-22T13:44:00;23.00;64.00
51811;DHT22;52468;40.116;18.296;2023-11-22T13:46:29;22.80;64.60
51811;DHT22;52468;40.116;18.296;2023-11-22T13:48:57;22.60;64.70
51811;DHT22;52468;40.116;18.296;2023-11-22T13:51:25;22.50;65.00
51811;DHT22;52468;40.116;18.296;2023-11-22T13:53:53;22.30;64.60
51811;DHT22;52468;40.116;18.296;2023-11-22T13:56:21;22.20;64.40
51811;DHT22;52468;40.116;18.296;2023-11-22T13:58:50;22.20;63.90
51811;DHT22;52468;40.116;18.296;2023-11-22T14:01:17;22.20;63.10
51811;DHT22;52468;40.116;18.296;2023-11-22T14:03:49;22.10;62.70
51811;DHT22;52468;40.116;18.296;2023-11-22T14:06:17;22.00;62.50
51811;DHT22;52468;40.116;18.296;2023-11-22T14:08:45;22.00;62.30
51811;DHT22;52468;40.116;18.296;2023-11-22T14:11:13;22.00;62.20
51811;DHT22;52468;40.116;18.296;2023-11-22T14:13:41;22.00;62.10
51811;DHT22;52468;40.116;18.296;2023-11-22T14:16:09;22.00;62.30
51811;DHT22;52468;40.116;18.296;2023-11-22T14:18:37;22.00;62.30
51811;DHT22;52468;40.116;18.296;2023-11-22T14:21:05;22.00;62.30
51811;DHT22;52468;40.116;18.296;2023-11-22T14:23:33;21.90;62.40
51811;DHT22;52468;40.116;18.296;2023-11-22T14:26:01;21.90;62.40
51811;DHT22;52468;40.116;18.296;2023-11-22T14:28:30;21.70;62.70
51811;DHT22;52468;40.116;18.296;2023-11-22T14:30:58;21.50;63.50
51811;DHT22;52468;40.116;18.296;2023-11-22T14:33:25;21.30;64.00
51811;DHT22;52468;40.116;18.296;2023-11-22T14:35:53;21.20;64.50
51811;DHT22;52468;40.116;18.296;2023-11-22T14:38:21;21.00;65.30
51811;DHT22;52468;40.116;18.296;2023-11-22T14:40:50;21.00;65.70
51811;DHT22;52468;40.116;18.296;2023-11-22T14:43:18;20.80;66.40
51811;DHT22;52468;40.116;18.296;2023-11-22T14:45:47;20.80;66.80
51811;DHT22;52468;40.116;18.296;2023-11-22T14:48:14;20.60;67.40
51811;DHT22;52468;40.116;18.296;2023-11-22T14:50:43;20.60;67.60
51811;DHT22;52468;40.116;18.296;2023-11-22T14:53:11;20.50;68.00
51811;DHT22;52468;40.116;18.296;2023-11-22T14:55:39;20.40;68.20
51811;DHT22;52468;40.116;18.296;2023-11-22T14:58:08;20.40;68.40
51811;DHT22;52468;40.116;18.296;2023-11-22T15:00:36;20.30;68.80
51811;DHT22;52468;40.116;18.296;2023-11-22T15:03:05;20.20;68.90
51811;DHT22;52468;40.116;18.296;2023-11-22T15:05:32;20.10;69.00
51811;DHT22;52468;40.116;18.296;2023-11-22T15:08:00;20.00;68.90
51811;DHT22;52468;40.116;18.296;2023-11-22T15:10:29;19.90;68.80
51811;DHT22;52468;40.116;18.296;2023-11-22T15:12:56;19.90;68.80
51811;DHT22;52468;40.116;18.296;2023-11-22T15:15:25;19.70;69.00
51811;DHT22;52468;40.116;18.296;2023-11-22T15:17:53;19.70;68.90
51811;DHT22;52468;40.116;18.296;2023-11-22T15:20:21;19.60;69.10
51811;DHT22;52468;40.116;18.296;2023-11-22T15:22:49;19.50;69.10
51811;DHT22;52468;40.116;18.296;2023-11-22T15:25:18;19.50;69.40
51811;DHT22;52468;40.116;18.296;2023-11-22T15:27:46;19.50;69.50
51811;DHT22;52468;40.116;18.296;2023-11-22T15:30:14;19.40;69.60